createdAt,value
2023-05-22T00:01:49.372Z,68.76
2023-05-22T00:04:21.169Z,68.52
2023-05-22T00:06:48.144Z,68.73
2023-05-22T00:09:15.148Z,68.19
2023-05-22T00:11:41.613Z,68.34
2023-05-22T00:14:08.028Z,68.82
2023-05-22T00:16:34.420Z,67.77
2023-05-22T00:19:01.933Z,68.35
2023-05-22T00:21:28.358Z,67.63
2023-05-22T00:23:54.762Z,66.87
2023-05-22T00:26:23.309Z,65.94
2023-05-22T00:28:49.804Z,65.31
2023-05-22T00:31:16.615Z,65.81
2023-05-22T00:33:43.024Z,67.30
2023-05-22T00:36:09.654Z,66.62
2023-05-22T00:38:37.464Z,65.53
2023-05-22T00:41:04.051Z,66.97
2023-05-22T00:43:30.604Z,67.10
2023-05-22T00:45:57.715Z,67.73
2023-05-22T00:48:26.174Z,68.42
2023-05-22T00:50:54.204Z,68.65
2023-05-22T00:53:20.610Z,68.51
2023-05-22T00:55:47.382Z,68.54
2023-05-22T00:58:14.472Z,67.47
2023-05-22T01:00:42.095Z,67.17
2023-05-22T01:03:09.724Z,66.58
2023-05-22T01:05:36.280Z,65.66
2023-05-22T01:08:02.634Z,66.70
2023-05-22T01:10:29.100Z,67.17
2023-05-22T01:12:55.518Z,69.05
2023-05-22T01:15:21.934Z,69.00
2023-05-22T01:17:48.479Z,69.90
2023-05-22T01:20:15.017Z,68.69
2023-05-22T01:22:42.577Z,67.57
2023-05-22T01:25:09.021Z,67.85
2023-05-22T01:27:35.522Z,67.52
2023-05-22T01:30:01.939Z,66.40
2023-05-22T01:32:28.940Z,67.82
2023-05-22T01:34:55.500Z,68.80
2023-05-22T01:37:22.623Z,66.81
2023-05-22T01:39:49.282Z,66.25
2023-05-22T01:42:15.932Z,65.60
2023-05-22T01:44:42.333Z,66.51
2023-05-22T01:47:08.678Z,65.97
2023-05-22T01:49:36.425Z,67.01
2023-05-22T01:52:02.925Z,65.97
2023-05-22T01:54:30.256Z,66.36
2023-05-22T01:56:56.986Z,66.29
2023-05-22T01:59:25.523Z,66.84
2023-05-22T02:01:52.231Z,69.13
2023-05-22T02:04:18.678Z,67.72
2023-05-22T02:06:45.053Z,70.81
2023-05-22T02:09:11.506Z,71.00
2023-05-22T02:11:38.247Z,71.68
2023-05-22T02:14:04.666Z,69.72
2023-05-22T02:16:31.159Z,71.20
2023-05-22T02:18:57.684Z,71.48
2023-05-22T02:21:24.093Z,70.72
2023-05-22T02:23:50.618Z,69.51
2023-05-22T02:26:17.880Z,69.97
2023-05-22T02:28:44.424Z,69.16
2023-05-22T02:31:11.100Z,72.04
2023-05-22T02:33:37.529Z,74.09
2023-05-22T02:36:04.193Z,73.35
2023-05-22T02:38:30.640Z,73.92
2023-05-22T02:40:57.113Z,73.32
2023-05-22T02:43:23.538Z,73.86
2023-05-22T02:45:50.791Z,73.44
2023-05-22T02:48:17.459Z,74.47
2023-05-22T02:50:44.236Z,74.13
2023-05-22T02:53:11.008Z,75.51
2023-05-22T02:55:37.426Z,73.91
2023-05-22T02:58:04.041Z,74.60
2023-05-22T03:00:31.310Z,74.82
2023-05-22T03:02:57.880Z,74.45
2023-05-22T03:05:24.421Z,75.84
2023-05-22T03:07:52.948Z,76.06
2023-05-22T03:10:19.505Z,77.39
2023-05-22T03:12:45.980Z,76.87
2023-05-22T03:15:12.808Z,76.32
2023-05-22T03:17:41.236Z,77.59
2023-05-22T03:20:08.741Z,76.35
2023-05-22T03:22:35.269Z,76.94
2023-05-22T03:25:01.673Z,77.05
2023-05-22T03:27:29.266Z,77.75
2023-05-22T03:29:55.827Z,77.29
2023-05-22T03:32:23.446Z,77.00
2023-05-22T03:34:49.952Z,74.82
2023-05-22T03:37:16.544Z,75.36
2023-05-22T03:39:43.107Z,74.83
2023-05-22T03:42:18.947Z,75.22
2023-05-22T03:44:46.062Z,77.50
2023-05-22T03:47:12.735Z,77.49
2023-05-22T03:49:39.173Z,76.75
2023-05-22T03:52:05.622Z,77.70
2023-05-22T03:54:31.990Z,77.94
2023-05-22T03:56:58.385Z,81.15
2023-05-22T03:59:24.876Z,79.56
2023-05-22T04:01:51.353Z,78.73
2023-05-22T04:04:17.817Z,78.48
2023-05-22T04:06:44.282Z,78.81
2023-05-22T04:09:12.703Z,79.58
2023-05-22T04:11:42.438Z,80.28
2023-05-22T04:14:08.887Z,79.20
2023-05-22T04:16:35.322Z,78.89
2023-05-22T04:19:03.255Z,77.86
2023-05-22T04:21:29.873Z,79.43
2023-05-22T04:23:56.362Z,80.66
2023-05-22T04:26:23.423Z,80.21
2023-05-22T04:28:49.873Z,80.28
2023-05-22T04:31:17.038Z,80.59
2023-05-22T04:33:48.245Z,80.56
2023-05-22T04:36:14.668Z,81.23
2023-05-22T04:38:41.427Z,80.16
2023-05-22T04:41:11.121Z,79.00
2023-05-22T04:43:38.724Z,77.12
2023-05-22T04:46:05.221Z,80.01
2023-05-22T04:48:31.635Z,79.93
2023-05-22T04:50:58.480Z,82.25
2023-05-22T04:53:25.016Z,82.14
2023-05-22T04:55:52.877Z,82.03
2023-05-22T04:58:19.569Z,82.46
2023-05-22T05:00:46.014Z,84.45
2023-05-22T05:03:12.833Z,82.98
2023-05-22T05:05:41.605Z,80.48
2023-05-22T05:08:08.308Z,77.91
2023-05-22T05:10:34.888Z,79.05
2023-05-22T05:13:01.614Z,79.81
2023-05-22T05:15:29.359Z,77.83
2023-05-22T05:17:56.153Z,77.72
2023-05-22T05:20:22.620Z,78.40
2023-05-22T05:22:49.995Z,77.53
2023-05-22T05:25:17.496Z,79.46
2023-05-22T05:27:43.984Z,78.76
2023-05-22T05:30:10.866Z,78.01
2023-05-22T05:33:09.880Z,78.42
2023-05-22T05:35:56.035Z,80.57
2023-05-22T05:38:24.484Z,79.38
2023-05-22T05:40:50.972Z,80.49
2023-05-22T05:43:19.381Z,78.98
2023-05-22T05:45:45.871Z,79.84
2023-05-22T05:48:12.771Z,80.45
2023-05-22T05:50:42.782Z,77.20
2023-05-22T05:53:09.370Z,75.63
2023-05-22T05:55:35.947Z,77.02
2023-05-22T05:58:03.728Z,73.83
2023-05-22T06:00:45.936Z,74.73
2023-05-22T06:03:14.454Z,76.92
2023-05-22T06:05:49.808Z,79.12
2023-05-22T06:08:22.748Z,79.91
2023-05-22T06:10:49.706Z,81.23
2023-05-22T06:13:31.401Z,80.79
2023-05-22T06:16:00.501Z,79.48
2023-05-22T06:18:28.613Z,81.58
2023-05-22T06:20:58.998Z,80.60
2023-05-22T06:23:25.828Z,78.15
2023-05-22T06:25:54.062Z,76.89
2023-05-22T06:28:21.322Z,77.74
2023-05-22T06:30:48.240Z,78.50
2023-05-22T06:33:18.549Z,78.88
2023-05-22T06:35:45.522Z,77.00
2023-05-22T06:38:12.069Z,77.00
2023-05-22T06:40:40.625Z,77.42
2023-05-22T06:43:16.769Z,76.33
2023-05-22T06:45:53.930Z,75.88
2023-05-22T06:48:23.632Z,73.82
2023-05-22T06:51:16.987Z,74.62
2023-05-22T06:53:47.188Z,74.56
2023-05-22T06:56:18.260Z,76.59
2023-05-22T06:58:57.124Z,74.46
2023-05-22T07:01:31.496Z,75.43
2023-05-22T07:04:05.365Z,75.88
2023-05-22T07:06:54.776Z,76.06
2023-05-22T07:09:21.645Z,75.58
2023-05-22T07:11:49.104Z,75.48
2023-05-22T07:14:16.353Z,76.12
2023-05-22T07:16:43.764Z,76.47
2023-05-22T07:19:11.914Z,77.67
2023-05-22T07:21:39.242Z,75.96
2023-05-22T07:24:10.608Z,76.92
2023-05-22T07:26:40.373Z,75.84
2023-05-22T07:29:10.516Z,75.93
2023-05-22T07:31:39.028Z,74.87
2023-05-22T07:34:05.768Z,75.85
2023-05-22T07:36:32.534Z,78.45
2023-05-22T07:38:58.954Z,77.73
2023-05-22T07:41:25.598Z,77.49
2023-05-22T07:43:52.338Z,78.32
2023-05-22T07:46:25.000Z,76.92
2023-05-22T07:48:57.901Z,78.22
2023-05-22T07:51:24.528Z,78.49
2023-05-22T07:53:51.604Z,75.33
2023-05-22T07:56:18.026Z,74.28
2023-05-22T07:58:48.312Z,72.88
2023-05-22T08:01:18.401Z,73.87
2023-05-22T08:03:44.975Z,72.65
2023-05-22T08:06:11.754Z,72.71
2023-05-22T08:08:38.279Z,73.56
2023-05-22T08:11:04.956Z,71.11
2023-05-22T08:13:32.211Z,72.69
2023-05-22T08:16:00.243Z,72.81
2023-05-22T08:18:29.018Z,71.01
2023-05-22T08:20:55.933Z,72.63
2023-05-22T08:23:22.423Z,72.84
2023-05-22T08:25:50.090Z,73.12
2023-05-22T08:28:16.536Z,75.11
2023-05-22T08:30:42.987Z,71.91
2023-05-22T08:33:09.430Z,71.56
2023-05-22T08:35:36.010Z,72.98
2023-05-22T08:38:02.507Z,71.08
2023-05-22T08:40:28.906Z,71.72
2023-05-22T08:42:57.474Z,72.57
2023-05-22T08:45:25.873Z,73.50
2023-05-22T08:47:53.186Z,74.08
2023-05-22T08:50:19.669Z,74.86
2023-05-22T08:52:46.070Z,73.83
2023-05-22T08:55:12.564Z,72.97
2023-05-22T08:57:38.999Z,71.28
2023-05-22T09:00:05.735Z,75.47
2023-05-22T09:02:32.162Z,76.12
2023-05-22T09:04:58.716Z,76.07
2023-05-22T09:07:27.891Z,73.58
2023-05-22T09:09:54.312Z,74.47
2023-05-22T09:12:20.710Z,74.73
2023-05-22T09:14:47.150Z,73.22
2023-05-22T09:17:13.786Z,72.33
2023-05-22T09:19:40.785Z,70.89
2023-05-22T09:22:07.561Z,72.96
2023-05-22T09:24:34.914Z,72.68
2023-05-22T09:27:01.360Z,73.18
2023-05-22T09:29:27.741Z,72.13
2023-05-22T09:31:54.212Z,71.88
2023-05-22T09:34:20.769Z,71.83
2023-05-22T09:36:47.294Z,71.12
2023-05-22T09:39:13.825Z,72.13
2023-05-22T09:41:40.267Z,72.43
2023-05-22T09:44:06.684Z,71.75
2023-05-22T09:46:33.087Z,70.75
2023-05-22T09:48:59.545Z,71.89
2023-05-22T09:51:27.372Z,71.10
2023-05-22T09:53:54.294Z,72.11
2023-05-22T09:56:34.878Z,69.52
2023-05-22T09:59:05.409Z,68.92
2023-05-22T10:01:32.023Z,69.97
2023-05-22T10:03:58.486Z,68.49
2023-05-22T10:06:24.958Z,68.18
2023-05-22T10:08:51.645Z,68.57
2023-05-22T10:11:18.031Z,68.79
2023-05-22T10:13:45.192Z,68.53
2023-05-22T10:16:12.174Z,69.55
2023-05-22T10:18:38.663Z,67.63
2023-05-22T10:21:05.074Z,68.51
2023-05-22T10:23:31.808Z,66.73
2023-05-22T10:25:58.250Z,66.75
2023-05-22T10:28:24.654Z,68.71
2023-05-22T10:30:51.211Z,66.89
2023-05-22T10:33:37.910Z,66.72
2023-05-22T10:36:04.518Z,70.43
2023-05-22T10:38:30.981Z,70.56
2023-05-22T10:40:57.427Z,68.18
2023-05-22T10:43:23.946Z,69.76
2023-05-22T10:45:50.427Z,68.74
2023-05-22T10:48:16.864Z,68.93
2023-05-22T10:50:43.807Z,67.78
2023-05-22T10:53:10.238Z,67.78
2023-05-22T10:55:36.721Z,68.61
2023-05-22T10:58:05.050Z,69.17
2023-05-22T11:00:31.651Z,67.10
2023-05-22T11:03:10.076Z,68.01
2023-05-22T11:05:43.940Z,66.64
2023-05-22T11:08:10.434Z,67.01
2023-05-22T11:10:36.822Z,65.23
2023-05-22T11:13:03.883Z,63.87
2023-05-22T11:15:30.310Z,65.39
2023-05-22T11:17:57.776Z,64.96
2023-05-22T11:20:24.767Z,65.75
2023-05-22T11:22:53.488Z,64.56
2023-05-22T11:25:20.093Z,63.30
2023-05-22T11:27:46.515Z,62.58
2023-05-22T11:30:13.168Z,61.24
2023-05-22T11:32:39.827Z,62.36
2023-05-22T11:35:08.195Z,60.38
2023-05-22T11:37:34.636Z,59.97
2023-05-22T11:40:01.212Z,61.15
2023-05-22T11:42:27.718Z,61.55
2023-05-22T11:44:54.140Z,59.69
2023-05-22T11:47:20.626Z,61.19
2023-05-22T11:49:46.997Z,61.84
2023-05-22T11:52:13.442Z,62.65
2023-05-22T11:54:39.881Z,60.57
2023-05-22T11:57:06.814Z,60.00
2023-05-22T11:59:33.227Z,61.47
2023-05-22T12:01:59.971Z,61.37
2023-05-22T12:04:26.436Z,60.11
2023-05-22T12:06:53.060Z,60.59
2023-05-22T12:09:19.540Z,60.27
2023-05-22T12:11:46.676Z,61.05
2023-05-22T12:14:13.108Z,61.67
2023-05-22T12:16:39.780Z,60.94
2023-05-22T12:19:06.510Z,61.67
2023-05-22T12:21:33.029Z,61.38
2023-05-22T12:23:59.459Z,60.71
2023-05-22T12:26:25.849Z,60.89
2023-05-22T12:28:52.315Z,61.41
2023-05-22T12:31:18.714Z,60.17
2023-05-22T12:33:45.106Z,60.62
2023-05-22T12:36:11.549Z,60.13
2023-05-22T12:38:38.555Z,60.33
2023-05-22T12:41:05.125Z,59.22
2023-05-22T12:43:31.519Z,61.47
2023-05-22T12:45:58.590Z,58.71
2023-05-22T12:48:26.164Z,58.62
2023-05-22T12:50:52.622Z,58.58
2023-05-22T12:53:19.615Z,58.48
2023-05-22T12:55:46.018Z,58.63
2023-05-22T12:58:12.413Z,58.47
2023-05-22T13:00:39.033Z,57.44
2023-05-22T13:03:05.705Z,58.68
2023-05-22T13:05:32.263Z,57.72
2023-05-22T13:07:58.703Z,57.13
2023-05-22T13:10:25.220Z,57.27
2023-05-22T13:12:51.721Z,57.95
2023-05-22T13:15:18.194Z,57.38
2023-05-22T13:17:44.658Z,57.75
2023-05-22T13:20:11.194Z,57.08
2023-05-22T13:22:37.678Z,56.26
2023-05-22T13:25:04.110Z,57.67
2023-05-22T13:27:32.683Z,55.70
2023-05-22T13:30:00.225Z,55.12
2023-05-22T13:32:26.728Z,56.45
2023-05-22T13:34:53.180Z,56.66
2023-05-22T13:37:19.754Z,57.08
2023-05-22T13:39:46.261Z,56.45
2023-05-22T13:42:12.645Z,55.49
2023-05-22T13:44:39.089Z,55.79
2023-05-22T13:47:05.555Z,56.31
2023-05-22T13:49:31.981Z,56.11
2023-05-22T13:51:58.397Z,56.67
2023-05-22T13:54:24.801Z,54.71
2023-05-22T13:56:51.220Z,54.51
2023-05-22T13:59:17.657Z,55.89
2023-05-22T14:01:44.111Z,55.55
2023-05-22T14:04:10.521Z,55.59
2023-05-22T14:06:36.942Z,54.37
2023-05-22T14:09:06.007Z,54.08
2023-05-22T14:11:32.390Z,55.37
2023-05-22T14:13:58.873Z,55.94
2023-05-22T14:16:25.337Z,55.32
2023-05-22T14:18:51.966Z,54.56
2023-05-22T14:21:19.001Z,54.44
2023-05-22T14:23:45.627Z,55.14
2023-05-22T14:26:13.694Z,53.23
2023-05-22T14:28:40.913Z,54.41
2023-05-22T14:31:07.360Z,55.53
2023-05-22T14:33:33.900Z,53.86
2023-05-22T14:36:00.300Z,54.40
2023-05-22T14:38:26.732Z,53.10
2023-05-22T14:40:53.133Z,54.28
2023-05-22T14:43:19.580Z,56.72
2023-05-22T14:45:45.954Z,56.61
2023-05-22T14:48:12.805Z,56.94
2023-05-22T14:50:39.292Z,56.93
2023-05-22T14:53:05.792Z,55.80
2023-05-22T14:55:32.222Z,57.05
2023-05-22T14:57:58.656Z,57.11
2023-05-22T15:00:25.111Z,55.35
2023-05-22T15:02:51.655Z,56.98
2023-05-22T15:05:18.206Z,57.55
2023-05-22T15:07:46.705Z,57.22
2023-05-22T15:10:14.327Z,55.33
2023-05-22T15:12:40.835Z,56.70
2023-05-22T15:15:07.358Z,56.32
2023-05-22T15:17:33.862Z,56.49
2023-05-22T15:20:00.443Z,56.92
2023-05-22T15:22:26.884Z,57.30
2023-05-22T15:24:53.283Z,56.36
2023-05-22T15:27:19.719Z,56.87
2023-05-22T15:29:46.114Z,55.50
2023-05-22T15:32:12.641Z,56.01
2023-05-22T15:34:39.060Z,55.57
2023-05-22T15:37:05.476Z,55.06
2023-05-22T15:39:31.983Z,55.64
2023-05-22T15:42:05.884Z,55.56
2023-05-22T15:44:33.317Z,55.21
2023-05-22T15:46:59.756Z,55.46
2023-05-22T15:49:28.626Z,54.39
2023-05-22T15:51:56.642Z,54.28
2023-05-22T15:54:23.036Z,53.22
2023-05-22T15:56:49.501Z,53.01
2023-05-22T15:59:15.863Z,53.00
2023-05-22T16:01:42.424Z,52.11
2023-05-22T16:04:08.826Z,52.31
2023-05-22T16:06:35.282Z,52.02
2023-05-22T16:09:01.664Z,51.31
2023-05-22T16:11:28.094Z,50.98
2023-05-22T16:13:54.489Z,50.63
2023-05-22T16:16:21.255Z,49.94
2023-05-22T16:18:47.719Z,49.69
2023-05-22T16:21:14.131Z,49.24
2023-05-22T16:23:40.994Z,49.98
2023-05-22T16:26:07.457Z,49.46
2023-05-22T16:28:33.868Z,50.91
2023-05-22T16:31:00.324Z,50.55
2023-05-22T16:33:26.890Z,51.09
2023-05-22T16:35:53.318Z,52.01
2023-05-22T16:38:19.749Z,53.58
2023-05-22T16:40:46.177Z,54.96
2023-05-22T16:43:13.785Z,56.01
2023-05-22T16:45:40.535Z,56.46
2023-05-22T16:48:08.288Z,56.00
2023-05-22T16:50:34.799Z,57.60
2023-05-22T16:53:01.195Z,57.29
2023-05-22T16:55:27.619Z,55.43
2023-05-22T16:57:54.055Z,56.36
2023-05-22T17:00:20.637Z,55.86
2023-05-22T17:02:47.285Z,56.80
2023-05-22T17:05:13.764Z,57.02
2023-05-22T17:07:40.450Z,57.71
2023-05-22T17:10:06.855Z,57.94
2023-05-22T17:12:33.214Z,59.15
2023-05-22T17:14:59.705Z,59.47
2023-05-22T17:17:26.116Z,60.92
2023-05-22T17:19:53.359Z,63.20
2023-05-22T17:22:19.768Z,62.92
2023-05-22T17:24:46.269Z,61.25
2023-05-22T17:29:39.143Z,62.33
2023-05-22T17:32:06.313Z,62.72
2023-05-22T17:34:32.952Z,62.13
2023-05-22T17:36:59.379Z,62.77
2023-05-22T17:39:25.821Z,62.86
2023-05-22T17:41:52.198Z,63.30
2023-05-22T17:44:18.586Z,63.04
2023-05-22T17:46:45.021Z,62.38
2023-05-22T17:49:11.464Z,62.67
2023-05-22T17:51:37.884Z,60.00
2023-05-22T17:54:06.138Z,60.30
2023-05-22T17:56:32.657Z,61.17
2023-05-22T17:58:59.248Z,60.42
2023-05-22T18:01:27.256Z,60.09
2023-05-22T18:03:53.901Z,60.07
2023-05-22T18:06:23.193Z,62.63
2023-05-22T18:08:50.461Z,62.67
2023-05-22T18:11:16.984Z,61.69
2023-05-22T18:13:43.371Z,61.19
2023-05-22T18:16:09.809Z,62.19
2023-05-22T18:18:36.335Z,62.44
2023-05-22T18:21:02.728Z,64.33
2023-05-22T18:23:29.233Z,64.07
2023-05-22T18:25:57.225Z,64.21
2023-05-22T18:28:26.277Z,61.55
2023-05-22T18:30:52.669Z,62.04
2023-05-22T18:33:19.117Z,63.23
2023-05-22T18:35:45.718Z,63.54
2023-05-22T18:38:12.357Z,64.11
2023-05-22T18:40:39.259Z,64.32
2023-05-22T18:43:06.076Z,63.99
2023-05-22T18:45:32.544Z,64.38
2023-05-22T18:47:59.028Z,63.96
2023-05-22T18:50:26.361Z,63.50
2023-05-22T18:52:52.818Z,63.34
2023-05-22T18:55:19.350Z,63.39
2023-05-22T18:57:45.882Z,63.44
2023-05-22T19:00:12.344Z,64.21
2023-05-22T19:02:38.938Z,64.24
2023-05-22T19:05:05.619Z,63.35
2023-05-22T19:07:32.245Z,62.38
2023-05-22T19:09:58.655Z,62.33
2023-05-22T19:12:25.584Z,63.76
2023-05-22T19:14:52.548Z,61.00
2023-05-22T19:17:19.019Z,60.62
2023-05-22T19:19:46.722Z,58.99
2023-05-22T19:22:13.185Z,58.06
2023-05-22T19:24:39.584Z,57.59
2023-05-22T19:27:06.171Z,56.93
2023-05-22T19:29:32.617Z,55.26
2023-05-22T19:31:59.303Z,55.94
2023-05-22T19:34:25.739Z,55.52
2023-05-22T19:36:52.266Z,55.14
2023-05-22T19:39:18.906Z,55.24
2023-05-22T19:41:45.772Z,55.24
2023-05-22T19:44:12.617Z,54.84
2023-05-22T19:46:39.077Z,55.83
2023-05-22T19:49:05.474Z,55.43
2023-05-22T19:51:32.416Z,54.76
2023-05-22T19:53:58.785Z,54.12
2023-05-22T19:56:25.238Z,57.37
2023-05-22T19:58:51.644Z,57.37
2023-05-22T20:01:18.086Z,57.45
2023-05-22T20:03:44.618Z,57.87
2023-05-22T20:06:12.359Z,57.73
2023-05-22T20:08:39.064Z,57.02
2023-05-22T20:11:05.500Z,57.13
2023-05-22T20:13:32.404Z,57.21
2023-05-22T20:16:03.741Z,57.39
2023-05-22T20:18:33.192Z,57.25
2023-05-22T20:20:59.670Z,57.79
2023-05-22T20:23:26.508Z,59.21
2023-05-22T20:25:53.112Z,58.94
2023-05-22T20:28:20.041Z,59.34
2023-05-22T20:30:46.980Z,58.45
2023-05-22T20:33:14.310Z,57.36
2023-05-22T20:35:41.068Z,57.39
2023-05-22T20:38:09.805Z,58.42
2023-05-22T20:40:42.242Z,59.49
2023-05-22T20:43:09.007Z,58.68
2023-05-22T20:45:36.151Z,59.59
2023-05-22T20:48:02.812Z,59.58
2023-05-22T20:50:29.255Z,59.99
2023-05-22T20:52:55.672Z,59.07
2023-05-22T20:55:22.090Z,59.70
2023-05-22T20:57:48.779Z,60.02
2023-05-22T21:00:15.212Z,59.52
2023-05-22T21:02:41.815Z,59.51
2023-05-22T21:05:08.305Z,58.99
2023-05-22T21:07:34.735Z,60.28
2023-05-22T21:10:01.499Z,59.58
2023-05-22T21:12:28.067Z,57.07
2023-05-22T21:14:54.509Z,55.91
2023-05-22T21:17:21.077Z,57.42
2023-05-22T21:19:47.532Z,58.31
2023-05-22T21:22:13.949Z,57.01
2023-05-22T21:24:40.752Z,56.61
2023-05-22T21:27:07.274Z,57.65
2023-05-22T21:29:33.670Z,58.84
2023-05-22T21:32:00.152Z,60.57
2023-05-22T21:34:26.653Z,58.57
2023-05-22T21:36:53.060Z,59.54
2023-05-22T21:39:19.463Z,58.96
2023-05-22T21:41:47.159Z,59.43
2023-05-22T21:44:15.207Z,60.00
2023-05-22T21:46:41.649Z,59.41
2023-05-22T21:49:09.579Z,59.74
2023-05-22T21:51:36.078Z,59.62
2023-05-22T21:54:02.464Z,61.14
2023-05-22T21:56:28.886Z,61.55
2023-05-22T21:58:55.262Z,61.96
2023-05-22T22:01:21.725Z,61.87
2023-05-22T22:03:48.189Z,61.17
2023-05-22T22:06:14.778Z,62.16
2023-05-22T22:08:41.182Z,63.16
2023-05-22T22:11:08.405Z,62.38
2023-05-22T22:13:34.868Z,62.99
2023-05-22T22:16:01.292Z,63.55
2023-05-22T22:18:27.922Z,63.70
2023-05-22T22:20:55.834Z,63.69
2023-05-22T22:23:22.277Z,62.54
2023-05-22T22:25:48.781Z,63.86
2023-05-22T22:28:15.238Z,61.72
2023-05-22T22:30:41.775Z,63.17
2023-05-22T22:33:08.587Z,64.57
2023-05-22T22:35:35.045Z,65.37
2023-05-22T22:38:01.500Z,63.32
2023-05-22T22:40:27.926Z,63.29
2023-05-22T22:42:54.347Z,64.16
2023-05-22T22:45:20.759Z,66.37
2023-05-22T22:47:47.384Z,65.22
2023-05-22T22:50:13.862Z,66.39
2023-05-22T22:52:40.304Z,67.85
2023-05-22T22:55:07.130Z,68.17
2023-05-22T22:57:33.709Z,68.72
2023-05-22T23:00:00.169Z,68.18
2023-05-22T23:02:26.630Z,67.52
2023-05-22T23:04:53.240Z,66.59
2023-05-22T23:07:19.705Z,66.05
2023-05-22T23:09:46.101Z,64.04
2023-05-22T23:12:12.641Z,66.09
2023-05-22T23:14:39.056Z,67.51
2023-05-22T23:17:05.836Z,65.80
2023-05-22T23:19:32.359Z,64.37
2023-05-22T23:21:58.893Z,66.01
2023-05-22T23:24:25.252Z,65.16
2023-05-22T23:26:52.918Z,66.29
2023-05-22T23:29:19.280Z,65.61
2023-05-22T23:31:47.370Z,66.72
2023-05-22T23:34:14.045Z,68.18
2023-05-22T23:36:40.446Z,66.42
2023-05-22T23:39:06.946Z,65.78
2023-05-22T23:41:33.561Z,65.58
2023-05-22T23:43:59.974Z,65.57
2023-05-22T23:46:26.474Z,67.03
2023-05-22T23:48:52.875Z,65.82
2023-05-22T23:51:19.292Z,65.46
2023-05-22T23:53:46.062Z,66.21
2023-05-22T23:56:12.456Z,65.58
2023-05-22T23:58:38.934Z,66.31
